TAF and METAR

Could not understand the following METAR

OTBH 290456Z AUTO 19006KT 9999 CLR 32/24 A2975 RMK AO2 SLP075 T03170240 $

TAF for Al Udeid Air Base

TAF OTBH 290000Z 2900/3006 26006KT 9999 SKC QNH2966INS BECMG 2901/2902 24006KT 8000 BR SKC QNH2964INS BECMG 2904/2905 20009KT 9999 NSW SKC QNH2962INS BECMG 2908/2909 09012G20KT 9999 FEW080 QNH2960INS BECMG 2914/2915 11006KT 9999 SKC QNH2962INS BECMG 2922/2923 13006KT 9000 BR SKC QNH2964INS BECMG 3004/3005 17009KT 9999 NSW SKC QNH2962INS TX42/2911Z TN27/2903Z
Report created 29. sep 02:00

between 29. sep 02:00 - 30. sep 08:00

wind 6 knots from W (260°) visibility > 10km